Time;durP1;ratioP1;P1;durP2;ratioP2;P2;SDS_P1;SDS_P2;PMS_P1;PMS_P2;Temp;Humidity;BMP_temperature;BMP_pressure;BME280_temperature;BME280_humidity;BME280_pressure;Samples;Min_cycle;Max_cycle;Signal;HPM_P1;HPM_P2
2021/09/24 00:00:24;;;;;;;3.80;2.87;;;15.80;1.00;;;;;;6316738;22;20239;-81
2021/09/24 00:02:50;;;;;;;3.63;3.00;;;15.80;1.00;;;;;;6315144;22;20160;-81
2021/09/24 00:05:15;;;;;;;3.33;2.93;;;15.90;1.00;;;;;;6312366;22;20274;-80
2021/09/24 00:07:41;;;;;;;3.27;2.97;;;15.80;1.00;;;;;;6312033;22;20204;-81
2021/09/24 00:10:08;;;;;;;5.13;3.00;;;15.80;1.00;;;;;;6315184;22;20179;-80
2021/09/24 00:12:34;;;;;;;3.57;3.10;;;15.80;1.00;;;;;;6316631;22;20514;-81
2021/09/24 00:15:01;;;;;;;3.07;2.60;;;15.70;1.00;;;;;;6320914;22;20155;-80
2021/09/24 00:17:27;;;;;;;4.57;3.23;;;15.90;1.00;;;;;;6316906;22;20160;-80
2021/09/24 00:19:53;;;;;;;3.40;3.10;;;15.70;1.00;;;;;;6317398;22;20158;-81
2021/09/24 00:22:19;;;;;;;4.20;3.20;;;15.70;1.00;;;;;;6289027;22;20167;-80
2021/09/24 00:24:44;;;;;;;4.80;3.47;;;15.60;1.00;;;;;;6316932;22;20206;-80
2021/09/24 00:27:10;;;;;;;4.33;3.00;;;15.60;1.00;;;;;;6313953;22;20197;-81
2021/09/24 00:29:36;;;;;;;3.90;3.10;;;15.60;1.00;;;;;;6315652;22;20157;-81
2021/09/24 00:32:01;;;;;;;3.70;3.40;;;15.70;1.00;;;;;;6315162;22;20246;-80
2021/09/24 00:34:27;;;;;;;2.70;2.50;;;;;;;;;;6312633;22;20269;-80
2021/09/24 00:36:53;;;;;;;3.23;2.90;;;15.50;1.00;;;;;;6314594;22;20188;-80
2021/09/24 00:39:19;;;;;;;5.83;3.53;;;15.40;1.00;;;;;;6317770;22;20155;-81
2021/09/24 00:41:45;;;;;;;3.53;3.23;;;;;;;;;;6315174;22;20198;-80
2021/09/24 00:44:10;;;;;;;3.07;2.73;;;15.40;1.00;;;;;;6318013;22;20159;-81
2021/09/24 00:46:36;;;;;;;3.50;3.20;;;15.40;1.00;;;;;;6319840;22;20269;-80
2021/09/24 00:49:02;;;;;;;4.43;2.90;;;15.60;1.00;;;;;;6317864;22;20500;-81
2021/09/24 00:51:28;;;;;;;3.40;3.10;;;15.40;1.00;;;;;;6313096;22;20188;-80
2021/09/24 00:53:53;;;;;;;4.53;3.00;;;15.30;1.00;;;;;;6315702;22;20237;-81
2021/09/24 00:56:21;;;;;;;3.83;3.23;;;;;;;;;;6316779;22;20178;-80
2021/09/24 00:58:46;;;;;;;4.67;3.43;;;15.30;1.00;;;;;;6315021;22;20189;-80
2021/09/24 01:01:14;;;;;;;4.87;3.10;;;15.20;1.00;;;;;;6312668;22;20196;-80
2021/09/24 01:03:40;;;;;;;3.07;2.70;;;;;;;;;;6314780;22;20250;-81
2021/09/24 01:06:06;;;;;;;4.97;3.30;;;15.20;1.00;;;;;;6315835;22;20193;-80
2021/09/24 01:08:32;;;;;;;3.77;3.20;;;15.20;1.00;;;;;;6315559;22;20164;-81
2021/09/24 01:10:58;;;;;;;3.50;3.10;;;15.40;1.00;;;;;;6317105;22;20244;-81
2021/09/24 01:13:24;;;;;;;3.67;2.90;;;15.10;1.00;;;;;;6315625;22;20572;-81
2021/09/24 01:15:49;;;;;;;4.43;3.37;;;15.00;1.00;;;;;;6318357;22;20212;-80
2021/09/24 01:18:16;;;;;;;7.30;3.80;;;15.00;1.00;;;;;;6320590;22;20180;-80
2021/09/24 01:20:41;;;;;;;3.60;3.20;;;15.00;1.00;;;;;;6316431;22;20158;-80
2021/09/24 01:23:07;;;;;;;3.07;2.87;;;14.90;1.00;;;;;;6314151;22;20175;-79
2021/09/24 01:25:33;;;;;;;4.43;3.57;;;14.90;1.00;;;;;;6312925;22;20166;-79
2021/09/24 01:27:59;;;;;;;6.80;3.53;;;14.90;1.00;;;;;;6311738;22;20195;-79
2021/09/24 01:30:25;;;;;;;3.67;3.30;;;14.90;1.00;;;;;;6308998;22;20156;-79
2021/09/24 01:32:51;;;;;;;381.97;61.40;;;14.90;1.00;;;;;;6309202;22;20161;-79
2021/09/24 01:35:18;;;;;;;4.20;3.67;;;14.90;1.00;;;;;;6311443;22;20170;-79
2021/09/24 01:37:44;;;;;;;4.70;4.17;;;14.90;1.00;;;;;;6309379;22;20192;-79
2021/09/24 01:40:15;;;;;;;5.43;3.97;;;14.80;1.00;;;;;;6310868;22;20166;-78
2021/09/24 01:42:41;;;;;;;169.37;18.80;;;14.80;1.00;;;;;;6313223;22;20177;-79
2021/09/24 01:45:08;;;;;;;4.00;3.60;;;14.90;1.00;;;;;;6313689;22;20300;-78
2021/09/24 01:47:34;;;;;;;4.57;3.70;;;14.80;1.00;;;;;;6317498;22;20404;-79
2021/09/24 01:49:59;;;;;;;4.40;4.00;;;14.80;1.00;;;;;;6315572;22;20157;-79
2021/09/24 01:52:26;;;;;;;6.73;3.87;;;;;;;;;;6316535;22;20157;-82
2021/09/24 01:54:52;;;;;;;5.47;3.40;;;;;;;;;;6316280;22;20701;-80
2021/09/24 01:57:17;;;;;;;4.73;3.70;;;14.90;1.00;;;;;;6317071;22;20218;-79
2021/09/24 01:59:43;;;;;;;6.67;4.23;;;;;;;;;;6314864;22;20505;-80
2021/09/24 02:02:09;;;;;;;5.90;3.87;;;14.90;1.00;;;;;;6316772;22;20185;-79
2021/09/24 02:04:35;;;;;;;4.00;3.60;;;;;;;;;;6315122;22;20668;-83
2021/09/24 02:07:01;;;;;;;5.67;3.97;;;;;;;;;;6313980;22;20177;-80
2021/09/24 02:09:26;;;;;;;4.13;3.70;;;14.80;1.00;;;;;;6313007;22;20160;-79
2021/09/24 02:11:52;;;;;;;3.97;3.53;;;14.80;1.00;;;;;;6313098;22;20157;-81
2021/09/24 02:14:18;;;;;;;4.37;3.70;;;14.80;1.00;;;;;;6314923;22;20182;-79
2021/09/24 02:16:43;;;;;;;4.33;3.33;;;14.80;1.00;;;;;;6318290;22;20234;-80
2021/09/24 02:19:09;;;;;;;4.23;3.80;;;14.70;1.00;;;;;;6316936;22;20186;-80
2021/09/24 02:21:35;;;;;;;4.40;3.80;;;14.70;1.00;;;;;;6317935;22;20766;-80
2021/09/24 02:24:01;;;;;;;4.10;3.70;;;;;;;;;;6317275;22;20499;-79
2021/09/24 02:26:26;;;;;;;4.57;3.40;;;14.60;1.00;;;;;;6314797;22;20263;-79
2021/09/24 02:28:52;;;;;;;5.77;3.97;;;14.60;1.00;;;;;;6313228;22;20179;-80
2021/09/24 02:31:17;;;;;;;5.47;4.07;;;14.60;1.00;;;;;;6314287;22;20167;-79
2021/09/24 02:33:44;;;;;;;5.60;4.07;;;15.00;1.00;;;;;;6314243;22;20602;-80
2021/09/24 02:36:10;;;;;;;5.57;4.07;;;14.60;1.00;;;;;;6313282;22;20486;-80
2021/09/24 02:38:36;;;;;;;4.97;3.70;;;15.00;1.00;;;;;;6317892;22;20172;-80
2021/09/24 02:41:02;;;;;;;5.83;3.90;;;14.90;1.00;;;;;;6313219;22;20252;-79
2021/09/24 02:43:28;;;;;;;4.93;3.50;;;16.30;1.00;;;;;;6316033;22;20228;-79
2021/09/24 02:45:54;;;;;;;6.00;4.27;;;16.40;1.00;;;;;;6317590;22;20168;-80
2021/09/24 02:48:19;;;;;;;4.80;4.40;;;14.60;1.00;;;;;;6314374;22;20187;-80
2021/09/24 02:50:45;;;;;;;4.93;4.00;;;;;;;;;;6315726;22;20606;-80
2021/09/24 02:53:11;;;;;;;5.77;4.40;;;14.70;1.00;;;;;;6314986;22;20157;-80
2021/09/24 02:55:37;;;;;;;5.17;3.90;;;14.70;1.00;;;;;;6315554;22;20185;-79
2021/09/24 02:58:03;;;;;;;4.83;4.33;;;14.70;1.00;;;;;;6315023;22;20272;-79
2021/09/24 03:00:29;;;;;;;5.37;4.63;;;14.70;1.00;;;;;;6313291;22;20163;-80
2021/09/24 03:02:55;;;;;;;5.93;4.63;;;15.00;1.00;;;;;;6319725;22;20215;-80
2021/09/24 03:05:20;;;;;;;6.10;4.17;;;14.70;1.00;;;;;;6318043;22;20177;-79
2021/09/24 03:07:46;;;;;;;6.23;4.13;;;14.70;1.00;;;;;;6318036;22;20178;-79
2021/09/24 03:10:13;;;;;;;6.63;4.37;;;;;;;;;;6316184;22;20156;-79
2021/09/24 03:12:39;;;;;;;4.77;4.30;;;14.70;1.00;;;;;;6317395;22;20159;-80
2021/09/24 03:15:08;;;;;;;6.10;4.17;;;14.70;1.00;;;;;;6318401;22;20148;-80
2021/09/24 03:17:34;;;;;;;4.63;4.23;;;;;;;;;;6318731;22;20168;-81
2021/09/24 03:20:00;;;;;;;6.50;4.60;;;14.70;1.00;;;;;;6295299;22;20165;-84
2021/09/24 03:22:26;;;;;;;4.97;4.47;;;;;;;;;;6321498;22;20157;-81
2021/09/24 03:24:55;;;;;;;4.63;4.23;;;;;;;;;;6320079;22;20218;-81
2021/09/24 03:27:21;;;;;;;6.23;4.47;;;;;;;;;;6318237;22;20185;-81
2021/09/24 03:29:47;;;;;;;5.63;4.43;;;;;;;;;;6319933;22;20159;-81
2021/09/24 03:32:18;;;;;;;5.17;4.00;;;;;;;;;;6316291;22;20162;-79
2021/09/24 03:34:44;;;;;;;6.07;4.50;;;;;;;;;;6316148;22;20168;-80
2021/09/24 03:37:10;;;;;;;6.53;4.90;;;14.70;1.00;;;;;;6314235;22;20187;-80
2021/09/24 03:39:36;;;;;;;4.37;3.97;;;14.70;1.00;;;;;;6312601;22;20165;-79
2021/09/24 03:42:02;;;;;;;5.13;4.37;;;;;;;;;;6316054;22;20196;-79
2021/09/24 03:44:28;;;;;;;5.67;4.67;;;14.60;1.00;;;;;;6314442;22;20164;-79
2021/09/24 03:46:53;;;;;;;5.00;4.20;;;14.60;1.00;;;;;;6311042;22;20233;-79
2021/09/24 03:49:19;;;;;;;4.40;4.00;;;14.60;1.00;;;;;;6317134;22;20152;-79
2021/09/24 03:51:45;;;;;;;5.07;4.27;;;14.60;1.00;;;;;;6312435;22;20153;-80
2021/09/24 03:54:10;;;;;;;5.30;4.80;;;14.50;1.00;;;;;;6317033;22;20149;-81
2021/09/24 03:56:36;;;;;;;4.87;4.27;;;14.60;1.00;;;;;;6314574;22;20173;-80
2021/09/24 03:59:02;;;;;;;8.10;4.40;;;;;;;;;;6313338;22;20167;-80
2021/09/24 04:01:28;;;;;;;9.07;5.40;;;;;;;;;;6314416;22;20170;-80
2021/09/24 04:03:54;;;;;;;6.80;4.93;;;;;;;;;;6311104;22;20276;-80
2021/09/24 04:06:20;;;;;;;8.30;5.10;;;;;;;;;;6312792;22;20222;-80
2021/09/24 04:08:45;;;;;;;7.00;4.90;;;14.60;1.00;;;;;;6314457;22;20133;-80
2021/09/24 04:11:11;;;;;;;6.20;4.93;;;;;;;;;;6313006;22;20216;-80
2021/09/24 04:13:37;;;;;;;5.97;4.83;;;14.60;1.00;;;;;;6312067;22;20167;-80
2021/09/24 04:16:03;;;;;;;5.80;4.60;;;14.60;1.00;;;;;;6313855;22;20232;-80
2021/09/24 04:18:28;;;;;;;6.87;4.50;;;14.50;1.00;;;;;;6313166;22;20162;-80
2021/09/24 04:20:54;;;;;;;5.47;4.63;;;14.60;1.00;;;;;;6314563;22;20941;-80
2021/09/24 04:23:20;;;;;;;6.40;4.73;;;14.50;1.00;;;;;;6314256;22;20160;-80
2021/09/24 04:25:45;;;;;;;5.53;4.67;;;14.50;1.00;;;;;;6314587;22;20161;-81
2021/09/24 04:28:11;;;;;;;6.13;4.67;;;14.40;1.00;;;;;;6315416;22;20199;-81
2021/09/24 04:30:37;;;;;;;6.40;4.47;;;14.60;1.00;;;;;;6312801;22;20327;-81
2021/09/24 04:33:02;;;;;;;5.47;4.30;;;14.40;1.00;;;;;;6316057;22;20185;-81
2021/09/24 04:35:28;;;;;;;5.03;4.53;;;14.40;1.00;;;;;;6314586;22;20181;-80
2021/09/24 04:37:54;;;;;;;5.30;4.23;;;14.40;1.00;;;;;;6317152;22;20543;-81
2021/09/24 04:40:20;;;;;;;4.60;4.20;;;15.10;1.00;;;;;;6316138;22;20168;-81
2021/09/24 04:42:46;;;;;;;5.03;4.50;;;14.30;1.00;;;;;;6316896;22;20159;-81
2021/09/24 04:45:12;;;;;;;5.53;4.47;;;15.90;1.00;;;;;;6316150;22;20676;-81
2021/09/24 04:47:37;;;;;;;6.87;4.17;;;14.20;1.00;;;;;;6314496;22;20197;-81
2021/09/24 04:50:05;;;;;;;7.90;3.73;;;14.20;1.00;;;;;;6316285;22;20156;-81
2021/09/24 04:52:30;;;;;;;5.53;4.30;;;14.20;1.00;;;;;;6315319;22;20168;-81
2021/09/24 04:54:56;;;;;;;5.83;3.90;;;14.20;1.00;;;;;;6315141;22;20189;-81
2021/09/24 04:57:22;;;;;;;206.43;15.63;;;14.00;1.00;;;;;;6315796;22;20210;-80
2021/09/24 04:59:48;;;;;;;7.87;4.60;;;;;;;;;;6342342;22;20552;-80
2021/09/24 05:02:14;;;;;;;5.77;4.37;;;14.00;1.00;;;;;;6315519;22;20160;-80
2021/09/24 05:04:42;;;;;;;5.70;4.47;;;13.90;1.00;;;;;;6315272;22;20176;-79
2021/09/24 05:07:07;;;;;;;5.10;4.50;;;13.90;1.00;;;;;;6315130;22;20195;-79
2021/09/24 05:09:33;;;;;;;4.73;3.97;;;13.80;1.00;;;;;;6315539;22;20485;-81
2021/09/24 05:11:59;;;;;;;8.17;4.60;;;13.80;1.00;;;;;;6315539;22;20229;-80
2021/09/24 05:14:24;;;;;;;6.63;4.90;;;13.80;1.00;;;;;;6317555;22;20149;-81
2021/09/24 05:16:50;;;;;;;6.77;4.10;;;14.30;1.00;;;;;;6316166;22;20220;-80
2021/09/24 05:19:16;;;;;;;5.27;4.23;;;13.80;1.00;;;;;;6315538;22;20176;-80
2021/09/24 05:21:41;;;;;;;6.47;4.47;;;13.70;1.00;;;;;;6315714;22;20255;-80
2021/09/24 05:24:07;;;;;;;4.57;4.00;;;13.70;1.00;;;;;;6318340;22;20167;-81
2021/09/24 05:26:34;;;;;;;4.30;3.90;;;13.70;1.00;;;;;;6316879;22;20203;-80
2021/09/24 05:29:00;;;;;;;4.73;3.97;;;13.70;1.00;;;;;;6317318;22;20157;-81
2021/09/24 05:31:25;;;;;;;5.90;4.47;;;13.70;1.00;;;;;;6318441;22;20510;-80
2021/09/24 05:33:52;;;;;;;6.63;4.27;;;13.70;1.00;;;;;;6319967;22;20168;-80
2021/09/24 05:36:18;;;;;;;4.43;4.03;;;13.60;1.00;;;;;;6318737;22;20153;-80
2021/09/24 05:38:43;;;;;;;4.90;4.43;;;13.60;1.00;;;;;;6319405;22;20187;-81
2021/09/24 05:41:09;;;;;;;6.00;5.03;;;;;;;;;;6318873;22;20180;-81
2021/09/24 05:43:36;;;;;;;6.83;4.67;;;13.70;1.00;;;;;;6317839;22;20651;-81
2021/09/24 05:46:02;;;;;;;6.50;5.70;;;;;;;;;;6319869;22;20160;-80
2021/09/24 05:48:28;;;;;;;6.53;5.07;;;13.70;1.00;;;;;;6321782;22;20640;-81
2021/09/24 05:50:55;;;;;;;6.10;4.83;;;13.80;1.00;;;;;;6319784;22;20160;-81
2021/09/24 05:53:21;;;;;;;8.63;4.97;;;13.70;1.00;;;;;;6318461;22;20654;-80
2021/09/24 05:55:46;;;;;;;7.67;5.27;;;13.60;1.00;;;;;;6318858;22;20215;-81
2021/09/24 05:58:12;;;;;;;5.40;4.90;;;13.60;1.00;;;;;;6320276;22;20168;-80
2021/09/24 06:00:38;;;;;;;6.00;5.40;;;13.50;1.00;;;;;;6317476;22;20172;-80
2021/09/24 06:03:04;;;;;;;5.50;4.83;;;13.50;1.00;;;;;;6318230;22;20177;-81
2021/09/24 06:05:29;;;;;;;6.20;5.10;;;13.40;1.00;;;;;;6294757;22;20233;-81
2021/09/24 06:07:55;;;;;;;5.97;5.37;;;;;;;;;;6320597;22;20663;-80
2021/09/24 06:10:21;;;;;;;6.30;5.07;;;13.40;1.00;;;;;;6319887;22;20153;-80
2021/09/24 06:12:48;;;;;;;7.37;5.77;;;;;;;;;;6321830;22;20160;-80
2021/09/24 06:15:16;;;;;;;8.17;5.60;;;13.40;1.00;;;;;;6318351;22;20214;-80
2021/09/24 06:17:42;;;;;;;9.00;5.63;;;13.40;1.00;;;;;;6318276;22;20254;-81
2021/09/24 06:20:08;;;;;;;7.13;6.00;;;14.90;1.00;;;;;;6318625;22;20199;-80
2021/09/24 06:22:34;;;;;;;9.83;6.00;;;13.40;1.00;;;;;;6318264;22;20164;-80
2021/09/24 06:25:00;;;;;;;7.20;6.40;;;13.50;1.00;;;;;;6317577;22;20167;-81
2021/09/24 06:27:26;;;;;;;8.57;5.67;;;13.60;1.00;;;;;;6315275;22;20184;-81
2021/09/24 06:29:54;;;;;;;6.37;5.77;;;13.60;1.00;;;;;;6319228;22;20157;-83
2021/09/24 06:32:21;;;;;;;6.77;6.07;;;13.50;1.00;;;;;;6313186;22;20163;-79
2021/09/24 06:34:47;;;;;;;8.37;5.90;;;13.70;1.00;;;;;;6315805;22;20177;-80
2021/09/24 06:37:14;;;;;;;12.03;5.60;;;13.70;1.00;;;;;;6314543;22;20189;-80
2021/09/24 06:39:40;;;;;;;7.30;5.47;;;15.10;1.00;;;;;;6316136;22;20191;-79
2021/09/24 06:42:06;;;;;;;6.90;5.97;;;13.70;1.00;;;;;;6286044;22;20173;-79
2021/09/24 06:44:32;;;;;;;8.10;5.90;;;13.70;1.00;;;;;;6314422;22;20268;-79
2021/09/24 06:46:58;;;;;;;6.20;5.60;;;13.70;1.00;;;;;;6316706;22;20188;-80
2021/09/24 06:49:25;;;;;;;9.53;6.33;;;13.70;1.00;;;;;;6290166;22;20165;-79
2021/09/24 06:51:52;;;;;;;6.47;5.50;;;13.70;1.00;;;;;;6314951;22;20161;-80
2021/09/24 06:54:18;;;;;;;8.40;6.43;;;13.80;1.00;;;;;;6316743;22;20161;-80
2021/09/24 06:56:44;;;;;;;9.63;6.90;;;13.80;1.00;;;;;;6311795;22;20181;-79
2021/09/24 06:59:10;;;;;;;8.40;6.30;;;;;;;;;;6313316;22;20162;-80
2021/09/24 07:01:36;;;;;;;8.43;6.27;;;14.00;1.00;;;;;;6315404;22;20164;-79
2021/09/24 07:04:02;;;;;;;7.93;6.17;;;13.90;1.00;;;;;;6314832;22;20189;-81
2021/09/24 07:06:28;;;;;;;8.13;6.20;;;14.00;1.00;;;;;;6315230;22;20210;-80
2021/09/24 07:08:54;;;;;;;10.97;7.07;;;13.90;1.00;;;;;;6318935;22;20163;-81
2021/09/24 07:11:19;;;;;;;8.20;6.43;;;14.00;1.00;;;;;;6320827;22;20154;-81
2021/09/24 07:13:45;;;;;;;9.27;6.43;;;14.00;1.00;;;;;;6318004;22;20175;-82
2021/09/24 07:16:11;;;;;;;10.30;6.90;;;14.10;1.00;;;;;;6319046;22;20156;-81
2021/09/24 07:18:37;;;;;;;10.07;6.20;;;14.00;1.00;;;;;;6322542;22;20159;-81
2021/09/24 07:21:03;;;;;;;11.00;6.80;;;14.10;1.00;;;;;;6320567;22;20183;-81
2021/09/24 07:23:28;;;;;;;9.17;6.50;;;14.20;1.00;;;;;;6316920;22;20275;-81
2021/09/24 07:25:54;;;;;;;9.33;6.47;;;;;;;;;;6318542;22;20249;-80
2021/09/24 07:28:20;;;;;;;8.43;7.00;;;14.00;1.00;;;;;;6318532;22;20180;-79
2021/09/24 07:30:48;;;;;;;7.87;6.53;;;;;;;;;;6317372;22;20186;-81
2021/09/24 07:33:13;;;;;;;10.77;7.10;;;14.00;1.00;;;;;;6315819;22;20174;-82
2021/09/24 07:35:39;;;;;;;8.87;6.93;;;14.10;1.00;;;;;;6315870;22;20182;-80
2021/09/24 07:38:05;;;;;;;9.40;6.90;;;14.20;1.00;;;;;;6313953;22;20159;-79
2021/09/24 07:40:31;;;;;;;9.00;6.33;;;14.40;1.00;;;;;;6315732;22;20162;-80
2021/09/24 07:42:57;;;;;;;7.93;6.40;;;14.50;1.00;;;;;;6316463;22;20158;-80
2021/09/24 07:45:23;;;;;;;7.60;6.47;;;14.80;1.00;;;;;;6319254;22;20213;-80
2021/09/24 07:47:51;;;;;;;8.30;6.87;;;14.60;1.00;;;;;;6318513;22;20198;-80
2021/09/24 07:50:17;;;;;;;8.97;6.33;;;14.70;1.00;;;;;;6316899;22;20176;-80
2021/09/24 07:52:42;;;;;;;10.50;6.87;;;14.80;1.00;;;;;;6317079;22;20166;-80
2021/09/24 07:55:09;;;;;;;8.70;6.10;;;14.90;1.00;;;;;;6315450;22;20502;-80
2021/09/24 07:57:35;;;;;;;8.17;5.93;;;14.90;1.00;;;;;;6315485;22;20169;-80
2021/09/24 08:00:03;;;;;;;6.33;5.73;;;15.10;1.00;;;;;;6316196;22;20223;-81
2021/09/24 08:02:30;;;;;;;8.80;5.97;;;15.20;1.00;;;;;;6314962;22;20598;-80
2021/09/24 08:04:57;;;;;;;7.47;5.00;;;15.30;1.00;;;;;;6317545;22;20277;-80
2021/09/24 08:07:23;;;;;;;6.70;5.77;;;15.50;1.00;;;;;;6314633;22;20229;-82
2021/09/24 08:09:49;;;;;;;7.23;5.50;;;15.60;1.00;;;;;;6315404;22;20197;-80
2021/09/24 08:12:14;;;;;;;8.23;5.20;;;15.80;1.00;;;;;;6314913;22;20284;-82
2021/09/24 08:14:41;;;;;;;7.73;5.20;;;15.90;1.00;;;;;;6310889;22;20158;-84
2021/09/24 08:17:06;;;;;;;5.70;4.83;;;16.00;1.00;;;;;;6313106;22;20206;-85
2021/09/24 08:19:32;;;;;;;6.43;5.50;;;16.10;1.00;;;;;;6314700;22;20142;-83
2021/09/24 08:21:58;;;;;;;7.80;4.77;;;;;;;;;;6316284;22;20170;-83
2021/09/24 08:24:24;;;;;;;5.80;5.00;;;16.20;1.00;;;;;;6313117;22;20191;-84
2021/09/24 08:26:50;;;;;;;7.07;4.83;;;;;;;;;;6310178;22;20213;-84
2021/09/24 08:29:16;;;;;;;5.30;4.60;;;16.40;1.00;;;;;;6311886;22;20217;-85
2021/09/24 08:31:41;;;;;;;9.33;5.00;;;16.50;1.00;;;;;;6310765;22;20163;-85
2021/09/24 08:34:10;;;;;;;7.70;4.77;;;17.00;1.00;;;;;;6314838;22;20164;-83
2021/09/24 08:36:36;;;;;;;6.23;4.87;;;17.00;1.00;;;;;;6312131;22;20175;-83
2021/09/24 08:39:02;;;;;;;10.23;5.13;;;;;;;;;;6310779;22;20160;-84
2021/09/24 08:41:31;;;;;;;8.10;4.90;;;;;;;;;;6314544;22;20187;-82
2021/09/24 08:43:58;;;;;;;8.00;4.50;;;17.50;1.00;;;;;;6312805;22;20163;-83
2021/09/24 08:46:25;;;;;;;5.73;4.77;;;17.70;1.00;;;;;;6314345;22;20196;-82
2021/09/24 08:48:51;;;;;;;5.10;4.23;;;17.70;1.00;;;;;;6315071;22;20160;-83
2021/09/24 08:51:17;;;;;;;5.07;4.20;;;17.90;1.00;;;;;;6312614;22;20160;-84
2021/09/24 08:53:43;;;;;;;5.47;4.73;;;17.90;1.00;;;;;;6312153;22;20157;-83
2021/09/24 08:56:10;;;;;;;8.73;4.87;;;18.20;1.00;;;;;;6312575;22;20208;-84
2021/09/24 08:58:36;;;;;;;4.77;4.27;;;18.20;1.00;;;;;;6311986;22;20666;-84
2021/09/24 09:01:02;;;;;;;6.03;4.17;;;18.30;1.00;;;;;;6312505;22;20504;-83
2021/09/24 09:03:39;;;;;;;6.70;4.40;;;18.60;1.00;;;;;;6313850;22;20162;-84
2021/09/24 09:06:05;;;;;;;5.97;4.20;;;18.60;1.00;;;;;;6319640;22;20144;-81
2021/09/24 09:08:32;;;;;;;9.43;4.43;;;18.90;1.00;;;;;;6318317;22;20613;-84
2021/09/24 09:11:01;;;;;;;6.47;4.37;;;18.90;1.00;;;;;;6316670;22;20159;-81
2021/09/24 09:13:32;;;;;;;4.87;4.03;;;19.00;1.00;;;;;;6318243;22;20151;-81
2021/09/24 09:16:12;;;;;;;4.50;4.10;;;19.20;1.00;;;;;;6313758;22;20257;-80
2021/09/24 09:18:40;;;;;;;5.07;4.50;;;19.20;1.00;;;;;;6310926;22;20219;-79
2021/09/24 09:21:08;;;;;;;4.67;3.60;;;19.20;1.00;;;;;;6282564;22;20192;-79
2021/09/24 09:23:36;;;;;;;7.37;4.53;;;19.20;1.00;;;;;;6310939;22;20166;-79
2021/09/24 09:26:04;;;;;;;5.37;4.00;;;19.30;1.00;;;;;;6312537;22;20155;-79
2021/09/24 09:28:55;;;;;;;5.80;3.77;;;19.30;1.00;;;;;;6314416;22;20151;-79
2021/09/24 09:31:25;;;;;;;5.97;3.73;;;19.20;1.00;;;;;;6312252;22;20173;-81
2021/09/24 09:33:59;;;;;;;6.50;3.53;;;19.20;1.00;;;;;;6310586;22;20175;-80
2021/09/24 09:36:34;;;;;;;4.97;4.23;;;19.10;1.00;;;;;;6314906;22;20181;-80
2021/09/24 09:39:06;;;;;;;6.13;4.10;;;19.20;1.00;;;;;;6315429;22;20154;-80
2021/09/24 09:41:32;;;;;;;4.97;4.00;;;19.20;1.00;;;;;;6314320;22;20159;-80
2021/09/24 09:44:00;;;;;;;4.77;3.97;;;19.30;1.00;;;;;;6313455;22;20622;-81
2021/09/24 09:46:32;;;;;;;5.67;4.03;;;19.40;1.00;;;;;;6312361;22;20190;-82
2021/09/24 09:49:11;;;;;;;4.20;3.27;;;19.70;1.00;;;;;;6315400;22;20156;-80
2021/09/24 09:51:40;;;;;;;6.87;4.43;;;19.80;1.00;;;;;;6315883;22;20447;-80
2021/09/24 09:54:07;;;;;;;5.53;3.77;;;19.80;1.00;;;;;;6314956;22;20167;-80
2021/09/24 09:56:50;;;;;;;7.43;4.17;;;19.70;1.00;;;;;;6314696;22;20212;-80
2021/09/24 09:59:30;;;;;;;6.27;4.33;;;19.70;1.00;;;;;;6313840;22;20145;-80
2021/09/24 10:02:21;;;;;;;6.40;3.80;;;19.80;1.00;;;;;;6310772;22;20168;-80
2021/09/24 10:04:53;;;;;;;6.73;3.20;;;20.10;1.00;;;;;;6315826;22;20692;-82
2021/09/24 10:07:25;;;;;;;6.17;3.37;;;20.20;1.00;;;;;;6318558;22;20168;-81
2021/09/24 10:10:13;;;;;;;5.07;2.80;;;20.30;1.00;;;;;;6290447;22;20183;-81
2021/09/24 10:12:40;;;;;;;3.63;3.33;;;20.30;1.00;;;;;;6314536;22;20238;-80
2021/09/24 10:15:08;;;;;;;5.73;2.80;;;20.40;1.00;;;;;;6317759;22;20163;-80
2021/09/24 10:17:34;;;;;;;5.87;2.83;;;20.40;1.00;;;;;;6314838;22;20171;-79
2021/09/24 10:20:01;;;;;;;3.50;2.43;;;20.50;1.00;;;;;;6313747;22;20171;-80
2021/09/24 10:22:27;;;;;;;5.17;3.10;;;20.60;1.00;;;;;;6313717;22;20622;-79
2021/09/24 10:24:56;;;;;;;6.60;2.67;;;20.60;1.00;;;;;;6311909;22;20170;-80
2021/09/24 10:27:26;;;;;;;17.87;3.97;;;20.90;1.00;;;;;;6313972;22;20177;-79
2021/09/24 10:29:54;;;;;;;2.63;2.43;;;20.90;1.00;;;;;;6312682;22;20156;-79
2021/09/24 10:32:25;;;;;;;4.73;2.93;;;21.00;1.00;;;;;;6311808;22;20157;-79
2021/09/24 10:35:02;;;;;;;2.40;2.13;;;21.00;1.00;;;;;;6312480;22;20179;-80
2021/09/24 10:37:30;;;;;;;6.53;2.63;;;21.20;1.00;;;;;;6315053;22;20470;-81
2021/09/24 10:40:00;;;;;;;3.63;2.67;;;21.20;1.00;;;;;;6318484;22;20150;-80
2021/09/24 10:42:51;;;;;;;2.83;2.43;;;21.30;1.00;;;;;;6314064;22;20170;-82
2021/09/24 10:45:38;;;;;;;7.17;3.20;;;21.30;1.00;;;;;;6219472;23;20509;-80
2021/09/24 10:48:07;;;;;;;4.33;2.57;;;21.30;1.00;;;;;;6199510;23;20182;-84
2021/09/24 10:50:33;;;;;;;2.47;2.10;;;21.20;1.00;;;;;;6194771;23;20170;-83
2021/09/24 10:53:17;;;;;;;2.67;2.30;;;21.30;1.00;;;;;;6196589;23;20189;-82
2021/09/24 10:55:48;;;;;;;2.80;1.80;;;21.40;1.00;;;;;;6195135;23;20238;-84
2021/09/24 10:58:23;;;;;;;3.20;2.33;;;21.40;1.00;;;;;;6194960;23;20231;-84
2021/09/24 11:00:51;;;;;;;4.23;2.33;;;21.40;1.00;;;;;;6220247;23;20251;-84
2021/09/24 11:03:19;;;;;;;4.90;2.10;;;21.30;1.00;;;;;;6219546;23;20157;-83
2021/09/24 11:06:03;;;;;;;3.93;1.83;;;21.40;1.00;;;;;;6219887;23;20185;-84
2021/09/24 11:08:29;;;;;;;2.60;2.30;;;21.60;1.00;;;;;;6195122;23;20578;-84
2021/09/24 11:11:07;;;;;;;3.40;2.27;;;22.00;1.00;;;;;;6193344;23;20215;-83
2021/09/24 11:13:34;;;;;;;4.20;2.00;;;22.00;1.00;;;;;;6193554;23;20158;-84
2021/09/24 11:16:02;;;;;;;2.97;2.10;;;22.00;1.00;;;;;;6217407;23;20161;-84
2021/09/24 11:18:58;;;;;;;2.43;1.90;;;22.00;1.00;;;;;;6217437;23;20689;-84
2021/09/24 11:21:40;;;;;;;2.43;1.70;;;22.20;1.00;;;;;;6196480;22;20301;-84
2021/09/24 11:24:28;;;;;;;4.80;2.47;;;22.60;1.00;;;;;;6310167;22;20236;-85
2021/09/24 11:26:59;;;;;;;2.90;1.83;;;22.80;1.00;;;;;;6310293;22;20531;-84
2021/09/24 11:29:28;;;;;;;3.50;2.03;;;;;;;;;;6287051;22;20157;-82
2021/09/24 11:31:53;;;;;;;2.13;1.90;;;22.80;1.00;;;;;;6309698;22;20498;-78
2021/09/24 11:37:09;;;;;;;2.60;1.58;;;24.20;1.00;;;;;;6313906;22;20179;-79
2021/09/24 11:39:36;;;;;;;2.30;1.75;;;25.40;1.00;;;;;;6311094;22;20157;-80
2021/09/24 11:42:15;;;;;;;2.63;1.55;;;26.30;1.00;;;;;;6310739;22;20247;-79
2021/09/24 11:44:47;;;;;;;2.20;1.50;;;26.30;1.00;;;;;;6311036;22;20163;-79
2021/09/24 11:47:19;;;;;;;1.73;1.63;;;26.70;1.00;;;;;;6310989;22;20188;-79
2021/09/24 11:49:57;;;;;;;1.60;1.13;;;27.10;1.00;;;;;;6314502;22;20497;-81
2021/09/24 11:52:52;;;;;;;1.80;1.50;;;26.80;1.00;;;;;;6318339;22;20137;-81
2021/09/24 11:55:17;;;;;;;2.20;1.70;;;25.80;1.00;;;;;;6318058;22;20162;-82
2021/09/24 11:58:11;;;;;;;2.00;1.80;;;25.00;1.00;;;;;;6318848;22;20500;-82
2021/09/24 12:00:44;;;;;;;2.58;1.98;;;25.00;1.00;;;;;;6317196;22;20200;-80
2021/09/24 12:03:23;;;;;;;2.55;1.67;;;25.60;1.00;;;;;;6315050;22;20156;-81
2021/09/24 12:06:04;;;;;;;2.45;1.52;;;26.00;1.00;;;;;;6313304;22;20175;-80
2021/09/24 12:08:44;;;;;;;2.33;1.75;;;26.70;1.00;;;;;;6315597;22;20170;-80
2021/09/24 12:11:13;;;;;;;2.67;2.05;;;26.70;1.00;;;;;;6317447;22;20147;-81
2021/09/24 12:13:41;;;;;;;2.38;2.17;;;26.70;1.00;;;;;;6313644;22;20239;-80
2021/09/24 12:16:21;;;;;;;4.90;2.42;;;25.80;1.00;;;;;;6318274;22;20152;-81
2021/09/24 12:18:46;;;;;;;2.65;1.90;;;25.20;1.00;;;;;;6314588;22;20148;-79
2021/09/24 12:21:13;;;;;;;2.22;2.05;;;24.60;1.00;;;;;;6314250;22;20164;-80
2021/09/24 12:23:39;;;;;;;4.97;1.90;;;24.20;1.00;;;;;;6315994;22;20216;-81
2021/09/24 12:26:09;;;;;;;2.95;2.15;;;23.80;1.00;;;;;;6315701;22;20159;-81
2021/09/24 12:28:37;;;;;;;3.13;2.40;;;23.20;1.00;;;;;;6313689;22;20167;-82
2021/09/24 12:31:05;;;;;;;3.63;2.45;;;22.70;1.00;;;;;;6313576;22;20164;-81
2021/09/24 12:33:31;;;;;;;4.43;2.53;;;22.50;1.00;;;;;;6288978;22;20183;-81
2021/09/24 12:36:04;;;;;;;2.30;2.00;;;22.40;1.00;;;;;;6317305;22;20159;-80
2021/09/24 12:38:31;;;;;;;3.40;2.20;;;22.20;1.00;;;;;;6316141;22;20177;-80
2021/09/24 12:41:13;;;;;;;4.93;2.40;;;22.20;1.00;;;;;;6318202;22;20158;-80
2021/09/24 12:43:40;;;;;;;6.70;3.00;;;22.10;1.00;;;;;;6314066;22;20162;-80
2021/09/24 12:46:07;;;;;;;4.93;2.67;;;22.00;1.00;;;;;;6311717;22;20172;-80
2021/09/24 12:48:45;;;;;;;3.27;2.83;;;22.00;1.00;;;;;;6313020;22;20186;-80
2021/09/24 12:51:12;;;;;;;5.07;3.00;;;21.90;1.00;;;;;;6312931;22;20282;-80
2021/09/24 12:53:40;;;;;;;8.43;3.37;;;22.00;1.00;;;;;;6313920;22;20594;-80
2021/09/24 12:56:06;;;;;;;4.80;3.30;;;;;;;;;;6313024;22;20163;-80
2021/09/24 12:58:34;;;;;;;5.30;3.07;;;22.00;1.00;;;;;;6313965;22;20163;-80
2021/09/24 13:01:01;;;;;;;4.93;3.13;;;22.10;1.00;;;;;;6312327;22;20166;-80
2021/09/24 13:03:34;;;;;;;5.07;3.47;;;22.20;1.00;;;;;;6313991;22;20233;-80
2021/09/24 13:06:02;;;;;;;3.70;2.90;;;22.10;1.00;;;;;;6314815;22;20159;-82
2021/09/24 13:08:28;;;;;;;2.23;2.03;;;22.20;1.00;;;;;;6312789;22;20802;-81
2021/09/24 13:10:56;;;;;;;1.73;1.23;;;22.20;1.00;;;;;;6314710;22;20629;-81
2021/09/24 13:13:25;;;;;;;3.83;1.87;;;21.90;1.00;;;;;;6314436;22;20148;-80